Time;durP1;ratioP1;P1;durP2;ratioP2;P2;SDS_P1;SDS_P2;PMS_P1;PMS_P2;Temp;Humidity;BMP_temperature;BMP_pressure;BME280_temperature;BME280_humidity;BME280_pressure;Samples;Min_cycle;Max_cycle;Signal;HPM_P1;HPM_P2
2021/01/09 00:02:20;;;;;;;28.90;10.27;;;;;;;;;;4899633;29;20040;-77
2021/01/09 00:04:46;;;;;;;26.75;10.18;;;;;;;;;;4898361;29;20025;-77
2021/01/09 00:07:12;;;;;;;26.27;10.43;;;;;;;;;;4899649;29;20032;-77
2021/01/09 00:09:38;;;;;;;27.38;9.93;;;;;;;;;;4898085;29;20034;-76
2021/01/09 00:12:05;;;;;;;23.65;9.05;;;;;;;;;;4899576;29;20052;-80
2021/01/09 00:14:31;;;;;;;23.42;9.02;;;;;;;;;;4898414;29;20032;-77
2021/01/09 00:16:58;;;;;;;20.70;8.43;;;;;;;;;;4898589;29;20147;-77
2021/01/09 00:19:24;;;;;;;24.83;9.52;;;;;;;;;;4899365;29;20029;-77
2021/01/09 00:21:52;;;;;;;22.35;9.90;;;;;;;;;;4899318;29;20435;-77
2021/01/09 00:24:19;;;;;;;22.67;8.57;;;;;;;;;;4897955;29;20029;-77
2021/01/09 00:26:45;;;;;;;22.27;8.90;;;;;;;;;;4897904;29;20036;-77
2021/01/09 00:29:11;;;;;;;23.02;9.27;;;;;;;;;;4899114;29;20021;-77
2021/01/09 00:31:38;;;;;;;23.00;8.98;;;;;;;;;;4899205;29;20038;-77
2021/01/09 00:34:04;;;;;;;23.80;9.05;;;;;;;;;;4897956;29;20028;-77
2021/01/09 00:36:31;;;;;;;22.48;8.95;;;;;;;;;;4899038;29;20032;-77
2021/01/09 00:38:58;;;;;;;23.83;8.85;;;;;;;;;;4897697;29;20386;-77
2021/01/09 00:41:27;;;;;;;24.58;8.90;;;;;;;;;;4898450;29;20131;-78
2021/01/09 00:43:54;;;;;;;20.10;8.38;;;;;;;;;;4897706;29;20108;-77
2021/01/09 00:46:20;;;;;;;21.33;7.88;;;;;;;;;;4897667;29;20487;-77
2021/01/09 00:48:47;;;;;;;20.08;8.05;;;;;;;;;;4899091;29;20028;-77
2021/01/09 00:51:14;;;;;;;23.77;9.18;;;;;;;;;;4898919;29;20032;-84
2021/01/09 00:53:40;;;;;;;25.75;9.35;;;;;;;;;;4897324;29;20025;-77
2021/01/09 00:56:07;;;;;;;21.98;9.15;;;;;;;;;;4898755;29;20450;-78
2021/01/09 00:58:34;;;;;;;21.00;8.85;;;;;;;;;;4898821;29;20032;-77
2021/01/09 01:01:00;;;;;;;20.90;8.07;;;;;;;;;;4898502;29;20803;-77
2021/01/09 01:03:27;;;;;;;23.40;9.52;;;;;;;;;;4898853;29;20375;-77
2021/01/09 01:05:53;;;;;;;26.42;9.93;;;;;;;;;;4897348;29;20040;-77
2021/01/09 01:08:19;;;;;;;22.50;8.77;;;;;;;;;;4898858;29;20025;-83
2021/01/09 01:10:46;;;;;;;27.75;10.38;;;;;;;;;;4897448;29;20064;-77
2021/01/09 01:13:13;;;;;;;40.17;13.80;;;;;;;;;;4898429;29;20024;-77
2021/01/09 01:15:39;;;;;;;35.08;12.32;;;;;;;;;;4897029;29;20060;-77
2021/01/09 01:18:06;;;;;;;25.15;10.73;;;;;;;;;;4898385;29;20039;-77
2021/01/09 01:20:32;;;;;;;20.75;8.60;;;;;;;;;;4896889;29;20512;-77
2021/01/09 01:22:58;;;;;;;22.83;9.55;;;;;;;;;;4896783;29;20031;-77
2021/01/09 01:25:25;;;;;;;18.98;9.10;;;;;;;;;;4898179;29;20036;-77
2021/01/09 01:27:51;;;;;;;21.27;8.20;;;;;;;;;;4897979;29;20035;-77
2021/01/09 01:30:18;;;;;;;25.58;9.70;;;;;;;;;;4898025;29;20036;-77
2021/01/09 01:32:44;;;;;;;24.10;9.85;;;;;;;;;;4898143;29;20036;-77
2021/01/09 01:35:11;;;;;;;22.60;8.95;;;;;;;;;;4896654;29;20336;-77
2021/01/09 01:37:37;;;;;;;26.75;9.32;;;;;;;;;;4898007;29;20033;-77
2021/01/09 01:40:04;;;;;;;24.40;9.23;;;;;;;;;;4896521;29;20055;-78
2021/01/09 01:42:32;;;;;;;20.38;8.27;;;;;;;;;;4897976;29;20505;-78
2021/01/09 01:45:02;;;;;;;27.25;9.77;;;;;;;;;;4896839;29;20020;-78
2021/01/09 01:47:28;;;;;;;19.58;9.20;;;;;;;;;;4897922;29;20038;-78
2021/01/09 01:49:55;;;;;;;24.25;9.73;;;;;;;;;;4897883;29;20025;-78
2021/01/09 01:52:21;;;;;;;31.83;9.32;;;;;;;;;;4897969;29;20453;-78
2021/01/09 01:54:48;;;;;;;23.33;9.90;;;;;;;;;;4898028;29;20043;-78
2021/01/09 01:57:14;;;;;;;22.60;8.63;;;;;;;;;;4898002;29;20025;-85
2021/01/09 01:59:41;;;;;;;21.38;8.00;;;;;;;;;;4896560;29;20033;-77
2021/01/09 02:02:08;;;;;;;20.90;8.27;;;;;;;;;;4897904;29;20046;-78
2021/01/09 02:04:34;;;;;;;26.60;10.82;;;;;;;;;;4896629;29;20025;-77
2021/01/09 02:07:07;;;;;;;25.50;9.32;;;;;;;;;;4896639;29;20116;-77
2021/01/09 02:09:36;;;;;;;23.03;8.70;;;;;;;;;;4896534;29;20066;-80
2021/01/09 02:12:05;;;;;;;18.92;7.95;;;;;;;;;;4896652;29;20033;-76
2021/01/09 02:14:43;;;;;;;28.50;9.52;;;;;;;;;;4896454;29;20480;-79
2021/01/09 02:17:10;;;;;;;26.25;9.27;;;;;;;;;;4897754;29;20040;-78
2021/01/09 02:19:39;;;;;;;21.33;8.73;;;;;;;;;;4897570;29;20478;-77
2021/01/09 02:22:06;;;;;;;28.52;9.93;;;;;;;;;;4896294;29;20478;-77
2021/01/09 02:24:33;;;;;;;30.50;11.13;;;;;;;;;;4897773;29;20024;-79
2021/01/09 02:26:59;;;;;;;41.83;13.98;;;;;;;;;;4897878;29;20024;-77
2021/01/09 02:29:28;;;;;;;33.83;10.80;;;;;;;;;;4897688;29;20048;-77
2021/01/09 02:32:04;;;;;;;29.27;11.35;;;;;;;;;;4898413;29;20025;-78
2021/01/09 02:34:33;;;;;;;28.10;12.05;;;;;;;;;;4897719;29;20084;-77
2021/01/09 02:37:00;;;;;;;40.83;13.23;;;;;;;;;;4897600;29;20036;-78
2021/01/09 02:39:26;;;;;;;34.20;11.25;;;;;;;;;;4898564;29;20138;-84
2021/01/09 02:41:53;;;;;;;35.15;12.05;;;;;;;;;;4901603;29;20048;-78
2021/01/09 02:44:19;;;;;;;35.83;12.93;;;;;;;;;;4901798;29;20032;-78
2021/01/09 02:46:46;;;;;;;27.98;11.75;;;;;;;;;;4901583;29;20184;-77
2021/01/09 02:49:12;;;;;;;27.55;10.15;;;;;;;;;;4901334;29;20032;-77
2021/01/09 02:51:38;;;;;;;30.33;10.68;;;;;;;;;;4901474;29;20478;-78
2021/01/09 02:54:05;;;;;;;21.27;9.70;;;;;;;;;;4901326;29;20422;-83
2021/01/09 02:56:31;;;;;;;23.55;9.05;;;;;;;;;;4901208;29;20036;-78
2021/01/09 02:58:57;;;;;;;23.50;9.32;;;;;;;;;;4901232;29;20021;-77
2021/01/09 03:01:27;;;;;;;23.50;9.88;;;;;;;;;;4899653;29;20046;-78
2021/01/09 03:03:53;;;;;;;22.73;10.02;;;;;;;;;;4900986;29;20024;-78
2021/01/09 03:06:20;;;;;;;21.77;8.63;;;;;;;;;;4900813;29;20084;-78
2021/01/09 03:08:46;;;;;;;24.75;8.40;;;;;;;;;;4900817;29;20379;-78
2021/01/09 03:11:13;;;;;;;28.40;9.18;;;;;;;;;;4900801;29;20100;-78
2021/01/09 03:13:39;;;;;;;21.67;8.70;;;;;;;;;;4901042;29;20103;-78
2021/01/09 03:16:05;;;;;;;19.83;8.25;;;;;;;;;;4900651;29;20037;-77
2021/01/09 03:18:32;;;;;;;21.02;9.15;;;;;;;;;;4900521;29;20501;-78
2021/01/09 03:20:58;;;;;;;22.75;8.55;;;;;;;;;;4900374;29;20036;-78
2021/01/09 03:23:24;;;;;;;20.92;7.72;;;;;;;;;;4899267;29;20025;-78
2021/01/09 03:25:51;;;;;;;24.73;8.43;;;;;;;;;;4900506;29;20064;-78
2021/01/09 03:28:17;;;;;;;22.63;8.65;;;;;;;;;;4900635;29;20120;-77
2021/01/09 03:30:43;;;;;;;21.50;8.65;;;;;;;;;;4900196;29;20470;-78
2021/01/09 03:33:10;;;;;;;25.80;8.85;;;;;;;;;;4900567;29;20056;-77
2021/01/09 03:35:36;;;;;;;20.08;7.68;;;;;;;;;;4899018;29;20028;-78
2021/01/09 03:38:12;;;;;;;21.15;8.48;;;;;;;;;;4900705;29;20029;-78
2021/01/09 03:40:38;;;;;;;26.58;9.27;;;;;;;;;;4907544;29;20493;-78
2021/01/09 03:43:04;;;;;;;22.30;8.90;;;;;;;;;;4909374;29;20131;-83
2021/01/09 03:45:30;;;;;;;18.30;7.43;;;;;;;;;;4903100;29;20029;-77
2021/01/09 03:47:57;;;;;;;21.70;8.43;;;;;;;;;;4898591;29;20035;-78
2021/01/09 03:50:23;;;;;;;18.00;8.13;;;;;;;;;;4898475;29;20116;-85
2021/01/09 03:52:49;;;;;;;16.30;7.05;;;;;;;;;;4899989;29;20066;-77
2021/01/09 03:55:17;;;;;;;18.75;7.90;;;;;;;;;;4899828;29;20024;-78
2021/01/09 03:57:43;;;;;;;21.30;7.28;;;;;;;;;;4899887;29;20115;-77
2021/01/09 04:00:10;;;;;;;15.35;7.13;;;;;;;;;;4899774;29;20056;-77
2021/01/09 04:02:36;;;;;;;19.92;7.95;;;;;;;;;;4899799;29;20060;-78
2021/01/09 04:05:03;;;;;;;19.73;7.47;;;;;;;;;;4898389;29;20115;-78
2021/01/09 04:07:29;;;;;;;19.92;7.15;;;;;;;;;;4899517;29;20036;-78
2021/01/09 04:09:56;;;;;;;16.58;7.35;;;;;;;;;;4899696;29;20107;-77
2021/01/09 04:12:22;;;;;;;16.38;8.00;;;;;;;;;;4899700;29;20075;-77
2021/01/09 04:14:48;;;;;;;16.10;6.78;;;;;;;;;;4899523;29;20475;-76
2021/01/09 04:17:15;;;;;;;20.30;7.72;;;;;;;;;;4899429;29;20044;-76
2021/01/09 04:19:41;;;;;;;14.85;7.32;;;;;;;;;;4898073;29;20398;-77
2021/01/09 04:22:07;;;;;;;18.65;6.60;;;;;;;;;;4899258;29;20044;-77
2021/01/09 04:24:33;;;;;;;15.80;7.03;;;;;;;;;;4898643;29;20056;-77
2021/01/09 04:27:01;;;;;;;16.27;7.20;;;;;;;;;;4899518;29;20036;-76
2021/01/09 04:29:27;;;;;;;19.70;8.15;;;;;;;;;;4898100;29;20036;-77
2021/01/09 04:31:54;;;;;;;19.27;7.60;;;;;;;;;;4899336;29;20116;-77
2021/01/09 04:34:21;;;;;;;21.05;7.82;;;;;;;;;;4899249;29;20032;-76
2021/01/09 04:36:47;;;;;;;23.30;8.75;;;;;;;;;;4899155;29;20720;-77
2021/01/09 04:39:17;;;;;;;23.58;9.02;;;;;;;;;;4899271;29;20423;-77
2021/01/09 04:41:43;;;;;;;19.50;8.45;;;;;;;;;;4897978;29;20417;-77
2021/01/09 04:44:11;;;;;;;22.67;7.93;;;;;;;;;;4898872;29;20385;-78
2021/01/09 04:46:57;;;;;;;25.05;9.07;;;;;;;;;;4897687;29;20153;-77
2021/01/09 04:49:25;;;;;;;24.80;8.88;;;;;;;;;;4897769;29;20028;-77
2021/01/09 04:51:52;;;;;;;27.15;9.30;;;;;;;;;;4897668;29;20036;-78
2021/01/09 04:54:19;;;;;;;22.27;8.98;;;;;;;;;;4898956;29;20545;-77
2021/01/09 04:56:50;;;;;;;21.60;8.35;;;;;;;;;;4898847;29;20029;-77
2021/01/09 04:59:17;;;;;;;23.88;9.48;;;;;;;;;;4897328;29;20108;-77
2021/01/09 05:01:44;;;;;;;29.80;9.63;;;;;;;;;;4898830;29;20092;-78
2021/01/09 05:04:10;;;;;;;25.13;9.48;;;;;;;;;;4898264;29;20032;-77
2021/01/09 05:06:40;;;;;;;24.23;9.18;;;;;;;;;;4898580;29;20037;-77
2021/01/09 05:09:07;;;;;;;22.17;10.38;;;;;;;;;;4898631;29;20088;-77
2021/01/09 05:11:34;;;;;;;24.42;9.23;;;;;;;;;;4897480;29;20032;-77
2021/01/09 05:14:02;;;;;;;31.48;10.20;;;;;;;;;;4897127;29;20060;-77
2021/01/09 05:16:28;;;;;;;26.38;9.35;;;;;;;;;;4898464;29;20032;-77
2021/01/09 05:18:54;;;;;;;38.92;10.70;;;;;;;;;;4898412;29;20033;-77
2021/01/09 05:21:21;;;;;;;29.85;10.00;;;;;;;;;;4896896;29;20438;-77
2021/01/09 05:23:54;;;;;;;25.55;9.32;;;;;;;;;;4898172;29;20119;-77
2021/01/09 05:26:21;;;;;;;27.95;10.00;;;;;;;;;;4896771;29;20390;-77
2021/01/09 05:28:49;;;;;;;28.20;8.38;;;;;;;;;;4898235;29;20486;-77
2021/01/09 05:31:19;;;;;;;29.58;10.55;;;;;;;;;;4898139;29;20095;-77
2021/01/09 05:33:45;;;;;;;31.05;8.85;;;;;;;;;;4896851;29;20455;-77
2021/01/09 05:36:12;;;;;;;21.23;8.95;;;;;;;;;;4897856;29;20426;-77
2021/01/09 05:38:39;;;;;;;20.00;8.07;;;;;;;;;;4896820;29;20095;-77
2021/01/09 05:41:07;;;;;;;29.77;9.68;;;;;;;;;;4897751;29;20091;-77
2021/01/09 05:43:33;;;;;;;19.85;8.95;;;;;;;;;;4896685;29;20028;-77
2021/01/09 05:46:00;;;;;;;24.92;9.88;;;;;;;;;;4897732;29;20039;-77
2021/01/09 05:48:27;;;;;;;23.45;8.68;;;;;;;;;;4898017;29;20493;-84
2021/01/09 05:50:54;;;;;;;26.33;9.07;;;;;;;;;;4897928;29;20060;-78
2021/01/09 05:53:40;;;;;;;28.92;9.63;;;;;;;;;;4897936;29;20025;-77
2021/01/09 05:56:07;;;;;;;26.90;9.20;;;;;;;;;;4896652;29;20040;-78
2021/01/09 05:58:34;;;;;;;35.08;10.35;;;;;;;;;;4897692;29;20085;-77
2021/01/09 06:01:05;;;;;;;82.85;24.98;;;;;;;;;;4896520;29;20041;-78
2021/01/09 06:03:45;;;;;;;53.22;19.38;;;;;;;;;;4896787;29;20036;-77
2021/01/09 06:06:14;;;;;;;37.78;12.02;;;;;;;;;;4896539;29;20048;-77
2021/01/09 06:08:42;;;;;;;32.58;13.02;;;;;;;;;;4896670;29;20029;-77
2021/01/09 06:11:09;;;;;;;31.95;9.90;;;;;;;;;;4896491;29;20033;-77
2021/01/09 06:13:37;;;;;;;34.22;11.65;;;;;;;;;;4896422;29;20431;-77
2021/01/09 06:16:05;;;;;;;28.10;9.20;;;;;;;;;;4899328;29;20036;-78
2021/01/09 06:18:32;;;;;;;34.72;10.65;;;;;;;;;;4901678;29;20104;-77
2021/01/09 06:20:59;;;;;;;27.35;9.82;;;;;;;;;;4900107;29;20043;-78
2021/01/09 06:23:25;;;;;;;28.30;10.30;;;;;;;;;;4901367;29;20043;-76
2021/01/09 06:25:52;;;;;;;29.05;10.00;;;;;;;;;;4900118;29;20084;-77
2021/01/09 06:28:21;;;;;;;22.33;8.70;;;;;;;;;;4901380;29;20334;-78
2021/01/09 06:30:51;;;;;;;26.83;10.07;;;;;;;;;;4903249;29;20036;-76
2021/01/09 06:33:21;;;;;;;25.15;9.15;;;;;;;;;;4906094;29;20028;-77
2021/01/09 06:35:47;;;;;;;30.83;10.18;;;;;;;;;;4910451;29;20035;-83
2021/01/09 06:38:13;;;;;;;31.73;11.13;;;;;;;;;;4914222;29;20119;-83
2021/01/09 06:40:40;;;;;;;26.83;9.27;;;;;;;;;;4917180;29;20081;-82
2021/01/09 06:43:08;;;;;;;21.35;9.77;;;;;;;;;;4908948;29;20055;-81
2021/01/09 06:45:34;;;;;;;21.38;8.98;;;;;;;;;;4909248;29;20118;-83
2021/01/09 06:48:01;;;;;;;21.17;8.52;;;;;;;;;;4908800;29;20102;-78
2021/01/09 06:50:27;;;;;;;28.27;8.05;;;;;;;;;;4904840;29;20486;-82
2021/01/09 06:52:53;;;;;;;20.55;7.47;;;;;;;;;;4900168;29;20509;-87
2021/01/09 06:55:34;;;;;;;19.55;7.32;;;;;;;;;;4899832;29;20032;-85
2021/01/09 06:58:01;;;;;;;20.40;8.00;;;;;;;;;;4900735;29;20159;-79
2021/01/09 07:00:27;;;;;;;19.25;7.45;;;;;;;;;;4900579;29;20051;-78
2021/01/09 07:03:16;;;;;;;21.60;8.48;;;;;;;;;;4902523;29;20020;-84
2021/01/09 07:05:49;;;;;;;17.75;7.82;;;;;;;;;;4910941;29;20037;-84
2021/01/09 07:08:40;;;;;;;22.80;7.97;;;;;;;;;;4910180;29;20035;-82
2021/01/09 07:11:09;;;;;;;18.90;7.28;;;;;;;;;;4924526;29;20079;-79
2021/01/09 07:13:36;;;;;;;18.20;7.68;;;;;;;;;;4912501;29;20037;-78
2021/01/09 07:16:09;;;;;;;15.10;6.65;;;;;;;;;;4900519;29;20025;-80
2021/01/09 07:18:56;;;;;;;19.45;8.07;;;;;;;;;;4922758;29;20092;-77
2021/01/09 07:21:22;;;;;;;26.80;10.88;;;;;;;;;;4911779;29;20032;-84
2021/01/09 07:23:49;;;;;;;19.52;8.88;;;;;;;;;;4908189;29;20489;-82
2021/01/09 07:26:18;;;;;;;17.80;7.53;;;;;;;;;;4901151;29;20139;-79
2021/01/09 07:28:46;;;;;;;14.52;7.75;;;;;;;;;;4913702;29;20028;-82
2021/01/09 07:31:12;;;;;;;15.05;7.43;;;;;;;;;;4914772;29;20047;-85
2021/01/09 07:33:38;;;;;;;17.13;7.40;;;;;;;;;;4908963;29;20039;-79
2021/01/09 07:36:05;;;;;;;15.63;7.45;;;;;;;;;;4917203;29;20032;-83
2021/01/09 07:38:31;;;;;;;16.33;8.20;;;;;;;;;;4917682;29;20030;-83
2021/01/09 07:41:00;;;;;;;15.93;8.10;;;;;;;;;;4917416;29;20474;-83
2021/01/09 07:43:35;;;;;;;19.35;8.73;;;;;;;;;;4917729;29;20032;-83
2021/01/09 07:46:02;;;;;;;17.77;8.90;;;;;;;;;;4917542;29;20032;-85
2021/01/09 07:48:32;;;;;;;19.48;8.50;;;;;;;;;;4918871;29;20031;-83
2021/01/09 07:50:59;;;;;;;16.88;7.28;;;;;;;;;;4917597;29;20083;-82
2021/01/09 07:53:28;;;;;;;20.00;8.18;;;;;;;;;;4919051;29;20020;-85
2021/01/09 07:55:55;;;;;;;24.10;9.05;;;;;;;;;;4917900;29;20080;-84
2021/01/09 07:58:40;;;;;;;22.10;9.60;;;;;;;;;;4917357;29;20051;-84
2021/01/09 08:01:06;;;;;;;18.05;8.65;;;;;;;;;;4917302;29;20036;-84
2021/01/09 08:03:33;;;;;;;18.25;8.45;;;;;;;;;;4917420;29;20476;-85
2021/01/09 08:05:59;;;;;;;18.55;8.65;;;;;;;;;;4917386;29;20028;-83
2021/01/09 08:08:26;;;;;;;22.15;8.57;;;;;;;;;;4917309;29;20518;-84
2021/01/09 08:10:52;;;;;;;22.27;8.85;;;;;;;;;;4917096;29;20115;-81
2021/01/09 08:13:22;;;;;;;25.98;9.95;;;;;;;;;;4917340;29;20080;-82
2021/01/09 08:15:48;;;;;;;26.05;10.38;;;;;;;;;;4913309;29;20500;-85
2021/01/09 08:18:15;;;;;;;23.92;10.00;;;;;;;;;;4898644;29;20036;-82
2021/01/09 08:20:41;;;;;;;30.52;11.73;;;;;;;;;;4899323;29;20068;-82
2021/01/09 08:23:08;;;;;;;26.60;10.27;;;;;;;;;;4897985;29;20518;-82
2021/01/09 08:25:38;;;;;;;26.73;10.75;;;;;;;;;;4899438;29;20036;-83
2021/01/09 08:28:05;;;;;;;26.27;10.43;;;;;;;;;;4899761;29;20025;-83
2021/01/09 08:30:35;;;;;;;27.40;11.45;;;;;;;;;;4899280;29;20036;-83
2021/01/09 08:33:08;;;;;;;23.10;10.70;;;;;;;;;;4898025;29;20025;-82
2021/01/09 08:35:38;;;;;;;34.53;11.50;;;;;;;;;;4897523;29;20084;-82
2021/01/09 08:38:05;;;;;;;28.75;11.45;;;;;;;;;;4896948;29;20036;-83
2021/01/09 08:40:32;;;;;;;21.30;10.23;;;;;;;;;;4898946;29;20044;-87
2021/01/09 08:43:02;;;;;;;18.83;9.27;;;;;;;;;;4898961;29;20025;-77
2021/01/09 08:45:40;;;;;;;20.83;8.95;;;;;;;;;;4897753;29;20474;-76
2021/01/09 08:48:08;;;;;;;21.05;10.93;;;;;;;;;;4911176;29;20028;-78
2021/01/09 08:50:35;;;;;;;19.73;9.50;;;;;;;;;;4907026;29;20028;-76
2021/01/09 08:53:02;;;;;;;23.73;9.05;;;;;;;;;;4917569;29;20115;-80
2021/01/09 08:55:29;;;;;;;24.40;9.88;;;;;;;;;;4906878;29;20489;-80
2021/01/09 08:57:55;;;;;;;22.88;10.23;;;;;;;;;;4899003;29;20504;-88
2021/01/09 09:00:22;;;;;;;24.85;10.25;;;;;;;;;;4898296;29;20029;-86
2021/01/09 09:02:49;;;;;;;27.13;10.13;;;;;;;;;;4901159;29;20097;-88
2021/01/09 09:05:15;;;;;;;20.35;9.90;;;;;;;;;;4916610;29;20063;-90
2021/01/09 09:07:44;;;;;;;24.02;9.98;;;;;;;;;;4916384;29;20047;-83
2021/01/09 09:10:14;;;;;;;21.88;9.07;;;;;;;;;;4918152;29;20024;-84
2021/01/09 09:12:40;;;;;;;22.40;10.00;;;;;;;;;;4918247;29;20370;-92
2021/01/09 09:15:10;;;;;;;22.02;9.38;;;;;;;;;;4918653;29;20020;-91
2021/01/09 09:17:37;;;;;;;25.05;9.90;;;;;;;;;;4920428;29;20039;-91
2021/01/09 09:20:03;;;;;;;23.50;10.27;;;;;;;;;;4918939;29;20055;-93
2021/01/09 09:22:30;;;;;;;22.95;10.02;;;;;;;;;;4918872;29;20032;-92
2021/01/09 09:24:57;;;;;;;21.60;10.05;;;;;;;;;;4917904;29;20152;-80
2021/01/09 09:27:28;;;;;;;23.70;10.90;;;;;;;;;;4917378;29;20028;-80
2021/01/09 09:30:10;;;;;;;24.80;10.13;;;;;;;;;;4917229;29;20038;-87
2021/01/09 09:32:37;;;;;;;25.23;10.77;;;;;;;;;;4917526;29;20496;-84
2021/01/09 09:35:38;;;;;;;21.13;10.23;;;;;;;;;;4917663;29;20039;-91
2021/01/09 09:38:06;;;;;;;25.52;10.32;;;;;;;;;;4917184;29;20119;-84
2021/01/09 09:40:33;;;;;;;26.70;10.05;;;;;;;;;;4916245;29;20047;-81
2021/01/09 09:43:16;;;;;;;26.92;10.85;;;;;;;;;;4916737;29;20090;-81
2021/01/09 09:45:57;;;;;;;23.50;9.65;;;;;;;;;;4919205;29;20052;-91
2021/01/09 09:48:33;;;;;;;20.65;9.60;;;;;;;;;;4918959;29;20028;-92
2021/01/09 09:51:03;;;;;;;21.48;10.45;;;;;;;;;;4916071;29;20508;-80
2021/01/09 09:53:29;;;;;;;22.85;10.02;;;;;;;;;;4915446;29;20035;-80
2021/01/09 09:56:14;;;;;;;28.52;11.63;;;;;;;;;;4898488;29;20084;-83
2021/01/09 09:58:40;;;;;;;28.80;11.82;;;;;;;;;;4898370;29;20168;-91
2021/01/09 10:01:16;;;;;;;25.95;11.25;;;;;;;;;;4899437;29;20078;-90
2021/01/09 10:03:42;;;;;;;25.08;11.43;;;;;;;;;;4900423;29;20321;-86
2021/01/09 10:06:09;;;;;;;26.08;11.23;;;;;;;;;;4898826;29;20031;-88
2021/01/09 10:08:35;;;;;;;35.03;13.20;;;;;;;;;;4899610;29;20451;-82
2021/01/09 10:11:02;;;;;;;35.67;13.05;;;;;;;;;;4898806;29;20475;-86
2021/01/09 10:13:29;;;;;;;27.30;12.02;;;;;;;;;;4898266;29;20486;-82
2021/01/09 10:15:56;;;;;;;35.10;11.48;;;;;;;;;;4898281;29;20107;-82
2021/01/09 10:18:22;;;;;;;30.35;11.77;;;;;;;;;;4898944;29;20032;-92
2021/01/09 10:20:48;;;;;;;24.13;11.02;;;;;;;;;;4898050;29;20040;-85
2021/01/09 10:23:14;;;;;;;23.35;9.75;;;;;;;;;;4900544;29;20025;-92
2021/01/09 10:25:40;;;;;;;20.83;9.30;;;;;;;;;;4897999;29;20029;-92
2021/01/09 10:28:06;;;;;;;17.70;8.45;;;;;;;;;;4900522;29;20044;-92
2021/01/09 10:30:32;;;;;;;27.02;11.07;;;;;;;;;;4899358;29;20037;-89
2021/01/09 10:32:59;;;;;;;23.92;10.18;;;;;;;;;;4898512;29;20431;-87
2021/01/09 10:35:25;;;;;;;24.88;11.40;;;;;;;;;;4897393;29;20033;-90
2021/01/09 10:37:52;;;;;;;25.23;10.88;;;;;;;;;;4902169;29;20064;-79
2021/01/09 10:40:19;;;;;;;24.08;10.30;;;;;;;;;;4895792;29;20088;-79
2021/01/09 10:42:47;;;;;;;26.20;10.55;;;;;;;;;;4897815;29;20029;-81
2021/01/09 10:45:14;;;;;;;24.27;10.07;;;;;;;;;;4896306;29;20024;-82
2021/01/09 10:47:42;;;;;;;22.35;9.02;;;;;;;;;;4897432;29;20032;-80
2021/01/09 10:50:08;;;;;;;26.60;10.40;;;;;;;;;;4898316;29;20040;-78
2021/01/09 10:52:35;;;;;;;23.40;9.65;;;;;;;;;;4896285;29;20089;-78
2021/01/09 10:55:04;;;;;;;22.20;8.85;;;;;;;;;;4897579;29;20431;-83
2021/01/09 10:57:30;;;;;;;28.42;11.05;;;;;;;;;;4897662;29;20029;-81
2021/01/09 10:59:56;;;;;;;27.67;9.80;;;;;;;;;;4897529;29;20039;-78
2021/01/09 11:02:25;;;;;;;26.25;9.85;;;;;;;;;;4900633;29;20040;-82
2021/01/09 11:04:52;;;;;;;29.60;10.80;;;;;;;;;;4899350;29;20032;-80
2021/01/09 11:07:19;;;;;;;27.67;11.18;;;;;;;;;;4900882;29;20562;-78
2021/01/09 11:09:47;;;;;;;25.05;10.98;;;;;;;;;;4900820;29;20028;-80
2021/01/09 11:12:14;;;;;;;23.02;9.18;;;;;;;;;;4900956;29;20025;-79
2021/01/09 11:14:41;;;;;;;27.65;11.07;;;;;;;;;;4901136;29;20029;-81
2021/01/09 11:17:07;;;;;;;27.10;10.57;;;;;;;;;;4901018;29;20064;-81
2021/01/09 11:19:36;;;;;;;31.70;11.43;;;;;;;;;;4900714;29;20088;-85
2021/01/09 11:22:02;;;;;;;28.73;11.75;;;;;;;;;;4902215;29;20120;-84
2021/01/09 11:24:35;;;;;;;31.08;11.48;;;;;;;;;;4900686;29;20025;-86
2021/01/09 11:27:05;;;;;;;23.50;10.20;;;;;;;;;;4899305;29;20044;-79
2021/01/09 11:29:33;;;;;;;23.45;10.02;;;;;;;;;;4900509;29;20265;-81
2021/01/09 11:32:01;;;;;;;21.90;10.23;;;;;;;;;;4900411;29;20040;-83
2021/01/09 11:34:28;;;;;;;34.22;11.15;;;;;;;;;;4900151;29;20474;-81
2021/01/09 11:36:56;;;;;;;24.38;10.60;;;;;;;;;;4900135;29;20115;-86
2021/01/09 11:39:23;;;;;;;26.75;11.25;;;;;;;;;;4898723;29;20025;-80
2021/01/09 11:41:51;;;;;;;24.35;11.38;;;;;;;;;;4900632;29;20115;-87
2021/01/09 11:44:19;;;;;;;22.27;10.57;;;;;;;;;;4900956;29;20031;-86
2021/01/09 11:46:45;;;;;;;25.33;9.10;;;;;;;;;;4900044;29;20025;-78
2021/01/09 11:49:12;;;;;;;23.23;10.40;;;;;;;;;;4898631;29;20048;-78
2021/01/09 11:51:40;;;;;;;13.30;6.97;;;;;;;;;;4900042;29;20033;-82
2021/01/09 11:54:40;;;;;;;18.90;7.45;;;;;;;;;;4900129;29;20116;-88
2021/01/09 11:57:07;;;;;;;14.50;6.15;;;;;;;;;;4899683;29;20414;-79
2021/01/09 11:59:34;;;;;;;20.20;8.65;;;;;;;;;;4899805;29;20024;-78
2021/01/09 12:02:00;;;;;;;18.88;8.13;;;;;;;;;;4900961;29;20444;-78
2021/01/09 12:04:26;;;;;;;22.92;9.60;;;;;;;;;;4898783;29;20032;-78
2021/01/09 12:06:59;;;;;;;20.17;7.90;;;;;;;;;;4898587;29;20449;-79
2021/01/09 12:09:25;;;;;;;13.18;6.75;;;;;;;;;;4899814;29;20132;-85
2021/01/09 12:11:55;;;;;;;14.65;7.05;;;;;;;;;;4898453;29;20036;-85
2021/01/09 12:14:21;;;;;;;14.80;6.55;;;;;;;;;;4899706;29;20478;-85
2021/01/09 12:16:47;;;;;;;11.88;5.78;;;;;;;;;;4898389;29;20151;-86
2021/01/09 12:19:14;;;;;;;14.13;7.07;;;;;;;;;;4899656;29;20083;-84
2021/01/09 12:21:40;;;;;;;13.95;6.47;;;;;;;;;;4898086;29;20067;-86
2021/01/09 12:24:06;;;;;;;12.93;6.05;;;;;;;;;;4898157;29;20025;-85
2021/01/09 12:26:33;;;;;;;14.07;6.53;;;;;;;;;;4899474;29;20123;-85
2021/01/09 12:28:59;;;;;;;11.60;5.70;;;;;;;;;;4898006;29;20073;-88
2021/01/09 12:31:35;;;;;;;19.42;8.07;;;;;;;;;;4901698;29;20408;-83
2021/01/09 12:34:04;;;;;;;35.15;12.38;;;;;;;;;;4902757;29;20060;-83
2021/01/09 12:36:31;;;;;;;15.98;6.40;;;;;;;;;;4898552;29;20037;-82
2021/01/09 12:38:57;;;;;;;11.02;5.90;;;;;;;;;;4899283;29;20032;-85
2021/01/09 12:41:43;;;;;;;12.00;4.78;;;;;;;;;;4897810;29;20055;-83
2021/01/09 12:44:11;;;;;;;10.25;5.43;;;;;;;;;;4898052;29;20036;-87
2021/01/09 12:46:44;;;;;;;10.07;5.35;;;;;;;;;;4899036;29;20111;-84
2021/01/09 12:49:11;;;;;;;11.63;5.60;;;;;;;;;;4899317;29;20394;-86
2021/01/09 12:51:37;;;;;;;12.52;5.13;;;;;;;;;;4899088;29;20048;-82
2021/01/09 12:54:04;;;;;;;11.02;5.18;;;;;;;;;;4898887;29;20044;-85
2021/01/09 12:56:32;;;;;;;11.77;5.75;;;;;;;;;;4897756;29;20081;-84
2021/01/09 12:59:02;;;;;;;13.75;6.22;;;;;;;;;;4899063;29;20024;-83
2021/01/09 13:01:32;;;;;;;12.60;6.30;;;;;;;;;;4898826;29;20047;-84
2021/01/09 13:03:58;;;;;;;12.75;5.38;;;;;;;;;;4897606;29;20050;-88
2021/01/09 13:06:25;;;;;;;9.57;4.90;;;;;;;;;;4897733;29;20478;-85
2021/01/09 13:08:52;;;;;;;11.07;5.18;;;;;;;;;;4897377;29;20028;-84
2021/01/09 13:11:18;;;;;;;10.70;5.85;;;;;;;;;;4898720;29;20043;-84
2021/01/09 13:13:45;;;;;;;12.23;5.40;;;;;;;;;;4897393;29;20025;-87
2021/01/09 13:16:12;;;;;;;11.68;5.68;;;;;;;;;;4897529;29;20033;-86
2021/01/09 13:18:38;;;;;;;10.35;4.50;;;;;;;;;;4897294;29;20033;-84
2021/01/09 13:21:04;;;;;;;12.20;5.75;;;;;;;;;;4897174;29;20132;-85
2021/01/09 13:23:31;;;;;;;10.95;5.72;;;;;;;;;;4896788;29;20021;-86
2021/01/09 13:26:06;;;;;;;11.88;6.03;;;;;;;;;;4898659;29;20064;-84
2021/01/09 13:28:32;;;;;;;12.32;6.32;;;;;;;;;;4898662;29;20029;-85
2021/01/09 13:30:59;;;;;;;12.77;5.90;;;;;;;;;;4896940;29;20057;-84
2021/01/09 13:33:26;;;;;;;14.15;6.68;;;;;;;;;;4897116;29;20029;-84
2021/01/09 13:35:52;;;;;;;13.40;5.50;;;;;;;;;;4897033;29;20063;-87
2021/01/09 13:38:18;;;;;;;12.38;5.47;;;;;;;;;;4897152;29;20040;-85
2021/01/09 13:40:44;;;;;;;7.68;4.03;;;;;;;;;;4896422;29;20483;-86
2021/01/09 13:43:11;;;;;;;11.95;4.28;;;;;;;;;;4898298;29;20036;-85
2021/01/09 13:45:37;;;;;;;12.43;4.60;;;;;;;;;;4896619;29;20545;-83
2021/01/09 13:48:03;;;;;;;11.63;4.45;;;;;;;;;;4896868;29;20032;-84
2021/01/09 13:50:29;;;;;;;9.65;4.55;;;;;;;;;;4896768;29;20087;-85
2021/01/09 13:52:55;;;;;;;12.23;5.78;;;;;;;;;;4898151;29;20031;-86
2021/01/09 13:55:21;;;;;;;17.15;7.72;;;;;;;;;;4896705;29;20029;-87
2021/01/09 13:57:48;;;;;;;21.73;8.13;;;;;;;;;;4896822;29;20040;-83
2021/01/09 14:00:15;;;;;;;18.38;7.95;;;;;;;;;;4901116;29;20029;-85
2021/01/09 14:02:42;;;;;;;16.42;7.32;;;;;;;;;;4906781;29;20040;-81
2021/01/09 14:05:09;;;;;;;15.90;7.30;;;;;;;;;;4905416;29;20040;-85
2021/01/09 14:07:35;;;;;;;21.27;8.60;;;;;;;;;;4904277;29;20024;-85
2021/01/09 14:10:01;;;;;;;21.45;9.15;;;;;;;;;;4896684;29;20052;-84
2021/01/09 14:12:27;;;;;;;20.10;8.50;;;;;;;;;;4896584;29;20036;-83
2021/01/09 14:14:54;;;;;;;23.52;10.18;;;;;;;;;;4896345;29;20033;-82
2021/01/09 14:17:20;;;;;;;21.80;9.70;;;;;;;;;;4897747;29;20068;-81
2021/01/09 14:19:46;;;;;;;21.20;9.50;;;;;;;;;;4897960;29;20024;-85
2021/01/09 14:22:12;;;;;;;27.77;11.02;;;;;;;;;;4896357;29;20135;-84
2021/01/09 14:24:38;;;;;;;22.92;9.90;;;;;;;;;;4896389;29;20044;-84
2021/01/09 14:27:11;;;;;;;18.50;8.95;;;;;;;;;;4896304;29;20492;-84
2021/01/09 14:29:37;;;;;;;24.17;10.10;;;;;;;;;;4897551;29;20065;-85
2021/01/09 14:32:03;;;;;;;26.33;11.43;;;;;;;;;;4896341;29;20025;-83